createdAt,value
2019-03-18T00:01:20.306Z,34.90
2019-03-18T00:04:36.248Z,35.00
2019-03-18T00:07:51.873Z,34.90
2019-03-18T00:11:07.664Z,35.10
2019-03-18T00:14:22.912Z,34.30
2019-03-18T00:17:38.760Z,35.00
2019-03-18T00:20:54.108Z,34.90
2019-03-18T00:24:09.769Z,35.10
2019-03-18T00:27:25.943Z,35.00
2019-03-18T00:30:41.956Z,34.90
2019-03-18T00:33:57.921Z,35.10
2019-03-18T00:37:13.980Z,35.20
2019-03-18T00:40:27.668Z,34.90
2019-03-18T00:43:50.341Z,35.20
2019-03-18T00:47:05.618Z,35.20
2019-03-18T00:50:21.646Z,35.00
2019-03-18T00:53:37.567Z,35.20
2019-03-18T00:56:52.838Z,34.90
2019-03-18T01:00:08.119Z,35.20
2019-03-18T01:03:24.028Z,34.90
2019-03-18T01:06:39.300Z,35.10
2019-03-18T01:09:55.293Z,34.90
2019-03-18T01:13:11.159Z,35.20
2019-03-18T01:16:27.181Z,35.20
2019-03-18T01:19:40.831Z,34.90
2019-03-18T01:22:56.388Z,34.90
2019-03-18T01:26:11.656Z,35.10
2019-03-18T01:29:27.533Z,34.90
2019-03-18T01:32:43.551Z,34.90
2019-03-18T01:35:59.429Z,35.10
2019-03-18T01:39:15.287Z,35.10
2019-03-18T01:42:30.581Z,34.90
2019-03-18T01:45:46.398Z,35.00
2019-03-18T01:49:02.396Z,34.90
2019-03-18T01:52:17.679Z,34.90
2019-03-18T01:55:32.917Z,34.90
2019-03-18T01:58:48.866Z,35.10
2019-03-18T02:02:04.930Z,34.90
2019-03-18T02:05:20.976Z,35.10
2019-03-18T02:08:36.561Z,34.80
2019-03-18T02:11:52.481Z,35.00
2019-03-18T02:15:08.372Z,35.10
2019-03-18T02:18:24.206Z,34.90
2019-03-18T02:21:39.493Z,35.10
2019-03-18T02:24:54.776Z,35.10
2019-03-18T02:28:10.911Z,34.90
2019-03-18T02:31:26.107Z,35.10
2019-03-18T02:34:48.806Z,35.10
2019-03-18T02:38:04.090Z,35.10
2019-03-18T02:41:07.352Z,35.00
2019-03-18T02:44:30.082Z,35.10
2019-03-18T02:47:43.776Z,35.20
2019-03-18T02:51:06.459Z,35.10
2019-03-18T02:54:22.334Z,35.10
2019-03-18T02:57:37.732Z,34.90
2019-03-18T03:00:53.349Z,35.00
2019-03-18T03:04:09.243Z,34.90
2019-03-18T03:07:25.279Z,35.10
2019-03-18T03:10:41.334Z,34.90
2019-03-18T03:13:56.574Z,34.90
2019-03-18T03:17:12.588Z,35.50
2019-03-18T03:20:28.601Z,34.90
2019-03-18T03:23:44.617Z,34.90
2019-03-18T03:27:00.765Z,34.40
2019-03-18T03:30:16.721Z,35.00
2019-03-18T03:33:32.051Z,34.90
2019-03-18T03:36:47.337Z,34.90
2019-03-18T03:40:02.587Z,34.90
2019-03-18T03:43:18.419Z,34.80
2019-03-18T03:46:43.078Z,35.00
2019-03-18T03:49:51.947Z,34.80
2019-03-18T03:53:07.363Z,35.00
2019-03-18T03:56:23.300Z,34.90
2019-03-18T03:59:39.311Z,35.00
2019-03-18T04:02:55.290Z,34.90
2019-03-18T04:06:11.208Z,34.90
2019-03-18T04:09:26.454Z,34.80
2019-03-18T04:12:42.520Z,34.80
2019-03-18T04:15:58.665Z,34.80
2019-03-18T04:19:14.516Z,35.00
2019-03-18T04:22:30.280Z,34.80
2019-03-18T04:25:46.324Z,35.00
2019-03-18T04:29:02.290Z,35.00
2019-03-18T04:32:17.978Z,35.00
2019-03-18T04:35:33.930Z,35.00
2019-03-18T04:38:49.914Z,34.70
2019-03-18T04:42:05.225Z,35.00
2019-03-18T04:45:21.211Z,34.70
2019-03-18T04:48:37.400Z,34.90
2019-03-18T04:51:53.247Z,34.90
2019-03-18T04:55:08.862Z,34.90
2019-03-18T04:58:24.935Z,34.90
2019-03-18T05:01:40.222Z,34.90
2019-03-18T05:04:56.127Z,34.70
2019-03-18T05:08:12.237Z,35.00
2019-03-18T05:11:28.193Z,34.80
2019-03-18T05:14:43.915Z,34.80
2019-03-18T05:17:59.277Z,34.90
2019-03-18T05:21:15.339Z,34.70
2019-03-18T05:24:31.388Z,34.80
2019-03-18T05:27:47.449Z,35.00
2019-03-18T05:31:03.322Z,34.70
2019-03-18T05:34:19.048Z,35.00
2019-03-18T05:37:35.014Z,35.00
2019-03-18T05:40:50.610Z,35.00
2019-03-18T05:44:04.195Z,34.70
2019-03-18T05:47:20.387Z,34.80
2019-03-18T05:50:36.254Z,34.90
2019-03-18T05:53:51.522Z,34.80
2019-03-18T05:57:05.117Z,34.90
2019-03-18T06:00:27.781Z,34.80
2019-03-18T06:03:50.461Z,34.90
2019-03-18T06:07:06.166Z,34.70
2019-03-18T06:10:21.968Z,34.90
2019-03-18T06:13:37.794Z,34.80
2019-03-18T06:16:53.037Z,34.80
2019-03-18T06:20:08.836Z,34.90
2019-03-18T06:23:24.848Z,34.60
2019-03-18T06:26:40.612Z,34.80
2019-03-18T06:29:56.642Z,34.60
2019-03-18T06:33:12.783Z,34.60
2019-03-18T06:36:27.965Z,34.60
2019-03-18T06:39:43.756Z,34.80
2019-03-18T06:42:59.745Z,34.60
2019-03-18T06:46:15.597Z,34.60
2019-03-18T06:49:31.411Z,34.60
2019-03-18T06:52:47.396Z,34.60
2019-03-18T06:56:03.001Z,34.70
2019-03-18T06:59:19.128Z,34.70
2019-03-18T07:02:35.044Z,34.90
2019-03-18T07:05:50.545Z,34.60
2019-03-18T07:09:05.735Z,34.60
2019-03-18T07:12:19.292Z,34.70
2019-03-18T07:15:35.398Z,34.80
2019-03-18T07:18:51.286Z,34.80
2019-03-18T07:22:06.586Z,34.60
2019-03-18T07:25:22.441Z,34.80
2019-03-18T07:28:38.275Z,34.70
2019-03-18T07:31:54.367Z,34.60
2019-03-18T07:35:10.240Z,34.70
2019-03-18T07:38:26.206Z,34.50
2019-03-18T07:41:42.261Z,34.40
2019-03-18T07:44:58.182Z,34.60
2019-03-18T07:48:14.045Z,34.40
2019-03-18T07:51:29.922Z,34.50
2019-03-18T07:54:43.553Z,34.70
2019-03-18T08:01:21.945Z,35.20
2019-03-18T08:04:38.259Z,34.90
2019-03-18T08:07:53.617Z,34.60
2019-03-18T08:11:08.859Z,34.60
2019-03-18T08:14:24.091Z,34.80
2019-03-18T08:17:40.117Z,34.90
2019-03-18T08:24:20.271Z,34.60
2019-03-18T08:27:36.022Z,34.60
2019-03-18T08:30:51.425Z,34.60
2019-03-18T08:37:31.373Z,34.50
2019-03-18T08:40:47.466Z,34.50
2019-03-18T08:44:03.058Z,34.40
2019-03-18T08:47:18.850Z,34.50
2019-03-18T08:50:34.942Z,34.50
2019-03-18T08:53:51.070Z,34.50
2019-03-18T08:57:06.911Z,34.50
2019-03-18T09:00:22.850Z,34.10
2019-03-18T09:03:38.094Z,34.10
2019-03-18T09:06:54.193Z,33.90
2019-03-18T09:10:09.449Z,33.70
2019-03-18T09:13:25.371Z,34.00
2019-03-18T09:16:41.281Z,33.90
2019-03-18T09:19:56.567Z,33.80
2019-03-18T09:23:14.934Z,33.90
2019-03-18T09:26:30.144Z,34.20
2019-03-18T09:29:53.330Z,34.10
2019-03-18T09:32:56.635Z,34.20
2019-03-18T09:36:19.317Z,34.20
2019-03-18T09:39:41.997Z,34.00
2019-03-18T09:42:58.066Z,33.80
2019-03-18T09:46:14.124Z,33.80
2019-03-18T09:49:27.748Z,33.80
2019-03-18T09:52:50.418Z,34.00
2019-03-18T09:56:06.325Z,34.10
2019-03-18T09:59:22.221Z,34.00
2019-03-18T10:02:37.502Z,33.90
2019-03-18T10:05:53.548Z,33.90
2019-03-18T10:08:56.791Z,33.90
2019-03-18T10:12:19.483Z,34.20
2019-03-18T10:15:42.170Z,33.90
2019-03-18T10:18:57.573Z,34.20
2019-03-18T10:22:13.746Z,34.10
2019-03-18T10:25:29.134Z,34.20
2019-03-18T10:28:44.359Z,34.00
2019-03-18T10:31:47.606Z,34.00
2019-03-18T10:35:10.294Z,34.00
2019-03-18T10:38:32.976Z,33.90
2019-03-18T10:41:36.225Z,33.70
2019-03-18T10:44:58.908Z,34.00
2019-03-18T10:48:14.280Z,33.80
2019-03-18T10:51:31.800Z,33.70
2019-03-18T10:54:34.564Z,33.60
2019-03-18T10:57:57.264Z,33.90
2019-03-18T11:01:12.664Z,33.70
2019-03-18T11:04:15.914Z,33.90
2019-03-18T11:07:38.604Z,33.90
2019-03-18T11:11:01.280Z,33.90
2019-03-18T11:14:16.916Z,33.60
2019-03-18T11:17:32.636Z,33.30
2019-03-18T11:20:48.753Z,33.30
2019-03-18T11:24:04.607Z,33.30
2019-03-18T11:27:20.649Z,33.40
2019-03-18T11:30:36.388Z,33.50
2019-03-18T11:33:52.177Z,33.20
2019-03-18T11:37:08.225Z,33.70
2019-03-18T11:40:24.072Z,34.00
2019-03-18T11:43:40.224Z,33.90
2019-03-18T11:46:55.483Z,34.20
2019-03-18T11:50:11.873Z,34.20
2019-03-18T11:53:27.267Z,34.50
2019-03-18T11:56:43.359Z,34.50
2019-03-18T11:59:59.378Z,34.60
2019-03-18T12:03:15.105Z,34.30
2019-03-18T12:06:31.030Z,34.50
2019-03-18T12:09:47.055Z,34.60
2019-03-18T12:13:02.784Z,34.60
2019-03-18T12:16:18.958Z,34.60
2019-03-18T12:19:34.299Z,34.50
2019-03-18T12:22:49.926Z,34.40
2019-03-18T12:26:05.764Z,34.30
2019-03-18T12:29:21.520Z,34.40
2019-03-18T12:32:37.364Z,34.50
2019-03-18T12:35:53.496Z,34.40
2019-03-18T12:39:09.358Z,34.50
2019-03-18T12:42:25.250Z,34.50
2019-03-18T12:45:41.442Z,34.40
2019-03-18T12:48:57.265Z,34.20
2019-03-18T12:52:13.038Z,34.20
2019-03-18T12:55:28.649Z,34.30
2019-03-18T12:58:42.280Z,34.30
2019-03-18T13:01:57.520Z,34.40
2019-03-18T13:05:13.721Z,34.60
2019-03-18T13:08:29.036Z,34.50
2019-03-18T13:11:42.548Z,34.80
2019-03-18T13:18:47.837Z,34.50
2019-03-18T13:22:04.005Z,34.50
2019-03-18T13:25:19.287Z,34.70
2019-03-18T13:28:34.562Z,34.60
2019-03-18T13:31:50.548Z,34.80
2019-03-18T13:35:05.842Z,34.60
2019-03-18T13:38:21.116Z,34.50
2019-03-18T13:41:37.252Z,34.60
2019-03-18T13:44:52.925Z,34.40
2019-03-18T13:48:09.021Z,34.20
2019-03-18T13:51:24.381Z,34.30
2019-03-18T13:54:40.533Z,34.20
2019-03-18T13:57:57.210Z,34.00
2019-03-18T14:01:13.320Z,34.20
2019-03-18T14:04:28.665Z,34.10
2019-03-18T14:07:44.732Z,34.20
2019-03-18T14:10:59.880Z,34.10
2019-03-18T14:14:15.141Z,34.50
2019-03-18T14:17:31.200Z,34.60
2019-03-18T14:20:46.445Z,34.40
2019-03-18T14:24:01.701Z,34.50
2019-03-18T14:27:16.933Z,34.60
2019-03-18T14:30:32.919Z,34.40
2019-03-18T14:33:49.060Z,34.50
2019-03-18T14:37:05.019Z,34.60
2019-03-18T14:40:20.191Z,34.40
2019-03-18T14:43:35.991Z,34.60
2019-03-18T14:46:52.072Z,34.40
2019-03-18T14:50:07.963Z,34.60
2019-03-18T14:53:23.444Z,34.40
2019-03-18T14:56:39.136Z,34.60
2019-03-18T14:59:54.403Z,34.60
2019-03-18T15:03:10.436Z,34.50
2019-03-18T15:06:25.996Z,34.40
2019-03-18T15:09:42.108Z,34.60
2019-03-18T15:12:58.142Z,35.10
2019-03-18T15:16:14.218Z,34.60
2019-03-18T15:19:29.505Z,34.40
2019-03-18T15:22:44.927Z,34.50
2019-03-18T15:25:48.176Z,34.30
2019-03-18T15:29:10.857Z,34.50
2019-03-18T15:32:33.645Z,34.20
2019-03-18T15:35:48.898Z,34.50
2019-03-18T15:39:05.821Z,34.40
2019-03-18T15:42:21.938Z,34.20
2019-03-18T15:45:37.237Z,34.10
2019-03-18T15:48:53.231Z,34.10
2019-03-18T15:52:11.204Z,34.00
2019-03-18T15:55:25.837Z,33.90
2019-03-18T15:58:41.786Z,33.80
2019-03-18T16:01:57.152Z,33.80
2019-03-18T16:05:10.801Z,33.70
2019-03-18T16:08:26.258Z,33.90
2019-03-18T16:11:42.269Z,33.60
2019-03-18T16:14:57.696Z,33.80
2019-03-18T16:18:13.742Z,33.50
2019-03-18T16:21:28.960Z,33.50
2019-03-18T16:24:44.985Z,33.50
2019-03-18T16:28:00.213Z,33.60
2019-03-18T16:31:16.214Z,33.60
2019-03-18T16:34:29.925Z,33.50
2019-03-18T16:37:52.604Z,33.80
2019-03-18T16:41:08.352Z,33.80
2019-03-18T16:44:24.271Z,33.70
2019-03-18T16:47:39.728Z,33.80
2019-03-18T16:50:54.954Z,34.00
2019-03-18T16:54:10.284Z,34.00
2019-03-18T16:57:26.207Z,34.10
2019-03-18T17:00:41.449Z,34.00
2019-03-18T17:03:56.686Z,34.30
2019-03-18T17:07:12.860Z,34.10
2019-03-18T17:10:28.694Z,34.30
2019-03-18T17:13:43.946Z,34.30
2019-03-18T17:16:59.671Z,34.20
2019-03-18T17:20:15.789Z,34.00
2019-03-18T17:23:31.015Z,33.30
2019-03-18T17:26:47.141Z,33.90
2019-03-18T17:30:02.978Z,33.80
2019-03-18T17:33:19.210Z,33.80
2019-03-18T17:36:34.476Z,34.00
2019-03-18T17:39:50.370Z,34.00
2019-03-18T17:43:05.817Z,33.70
2019-03-18T17:46:21.848Z,33.90
2019-03-18T17:49:37.703Z,34.60
2019-03-18T17:53:02.240Z,33.70
2019-03-18T17:56:10.384Z,33.80
2019-03-18T17:59:25.821Z,34.00
2019-03-18T18:02:41.863Z,33.70
2019-03-18T18:05:57.855Z,34.40
2019-03-18T18:09:14.009Z,33.80
2019-03-18T18:12:29.232Z,33.80
2019-03-18T18:15:45.116Z,33.80
2019-03-18T18:19:01.216Z,34.00
2019-03-18T18:22:17.041Z,34.10
2019-03-18T18:25:30.630Z,33.90
2019-03-18T18:28:53.306Z,34.00
2019-03-18T18:32:08.581Z,34.10
2019-03-18T18:35:24.468Z,34.00
2019-03-18T18:38:40.453Z,34.20
2019-03-18T18:41:55.839Z,34.00
2019-03-18T18:45:11.670Z,34.00
2019-03-18T18:48:27.845Z,34.00
2019-03-18T18:51:43.816Z,34.10
2019-03-18T18:55:00.024Z,34.20
2019-03-18T18:58:16.084Z,34.00
2019-03-18T19:01:31.379Z,34.10
2019-03-18T19:04:46.512Z,34.00
2019-03-18T19:08:02.585Z,34.00
2019-03-18T19:11:18.509Z,34.00
2019-03-18T19:14:34.548Z,34.10
2019-03-18T19:17:49.790Z,34.00
2019-03-18T19:21:03.413Z,34.10
2019-03-18T19:24:26.100Z,34.30
2019-03-18T19:27:41.273Z,34.00
2019-03-18T19:30:56.510Z,34.30
2019-03-18T19:34:12.482Z,34.30
2019-03-18T19:37:28.540Z,34.10
2019-03-18T19:40:44.604Z,34.40
2019-03-18T19:44:00.316Z,34.00
2019-03-18T19:47:15.721Z,34.40
2019-03-18T19:50:30.938Z,34.40
2019-03-18T19:53:49.328Z,34.40
2019-03-18T19:57:04.424Z,34.60
2019-03-18T20:00:20.446Z,34.70
2019-03-18T20:03:37.743Z,34.60
2019-03-18T20:06:53.710Z,34.60
2019-03-18T20:10:09.720Z,34.40
2019-03-18T20:13:25.778Z,34.60
2019-03-18T20:16:41.201Z,34.50
2019-03-18T20:19:57.230Z,34.70
2019-03-18T20:23:12.647Z,34.80
2019-03-18T20:26:30.381Z,34.50
2019-03-18T20:29:46.416Z,34.50
2019-03-18T20:33:01.881Z,34.60
2019-03-18T20:36:17.935Z,34.90
2019-03-18T20:39:33.861Z,34.80
2019-03-18T20:42:49.810Z,35.00
2019-03-18T20:46:05.796Z,34.70
2019-03-18T20:49:21.209Z,34.70
2019-03-18T20:52:36.420Z,34.70
2019-03-18T20:55:52.385Z,34.70
2019-03-18T20:59:08.282Z,34.80
2019-03-18T21:02:23.580Z,34.70
2019-03-18T21:05:38.833Z,34.80
2019-03-18T21:08:54.485Z,34.80
2019-03-18T21:12:09.701Z,35.00
2019-03-18T21:15:25.606Z,34.70
2019-03-18T21:18:40.945Z,34.80
2019-03-18T21:21:56.837Z,35.00
2019-03-18T21:25:12.771Z,35.00
2019-03-18T21:28:28.164Z,34.70
2019-03-18T21:31:43.482Z,34.90
2019-03-18T21:34:58.823Z,34.90
2019-03-18T21:38:14.890Z,34.60
2019-03-18T21:41:31.001Z,34.70
2019-03-18T21:44:46.224Z,34.80
2019-03-18T21:48:01.815Z,34.80
2019-03-18T21:51:17.913Z,34.80
2019-03-18T21:54:34.588Z,34.80
2019-03-18T22:01:07.918Z,34.70
2019-03-18T22:04:23.613Z,34.70
2019-03-18T22:07:39.448Z,34.40
2019-03-18T22:10:55.395Z,34.70
2019-03-18T22:14:11.545Z,34.70
2019-03-18T22:17:27.359Z,34.70
2019-03-18T22:20:42.514Z,34.50
2019-03-18T22:23:58.522Z,34.60
2019-03-18T22:27:13.678Z,34.50
2019-03-18T22:30:28.910Z,34.50
2019-03-18T22:33:42.522Z,34.50
2019-03-18T22:36:57.852Z,34.60
2019-03-18T22:40:13.834Z,34.60
2019-03-18T22:43:29.206Z,34.70
2019-03-18T22:46:42.860Z,34.60
2019-03-18T22:50:06.319Z,34.70
2019-03-18T22:53:22.228Z,34.40
2019-03-18T22:56:38.272Z,34.40
2019-03-18T22:59:54.132Z,34.50
2019-03-18T23:03:07.692Z,34.60
2019-03-18T23:06:30.373Z,34.60
2019-03-18T23:09:45.613Z,34.60
2019-03-18T23:13:01.764Z,34.60
2019-03-18T23:16:17.038Z,34.40
2019-03-18T23:19:33.141Z,34.70
2019-03-18T23:22:48.883Z,34.40
2019-03-18T23:26:04.968Z,34.70
2019-03-18T23:29:21.021Z,34.60
2019-03-18T23:32:36.246Z,34.70
2019-03-18T23:35:52.241Z,34.50
2019-03-18T23:39:06.749Z,34.60
2019-03-18T23:42:22.793Z,34.60
2019-03-18T23:45:38.808Z,34.50
2019-03-18T23:48:54.891Z,34.60
2019-03-18T23:52:10.837Z,34.70
2019-03-18T23:55:26.177Z,34.60
2019-03-18T23:58:42.200Z,34.70
